Time;durP1;ratioP1;P1;durP2;ratioP2;P2;SDS_P1;SDS_P2;PMS_P1;PMS_P2;Temp;Humidity;BMP_temperature;BMP_pressure;BME280_temperature;BME280_humidity;BME280_pressure;Samples;Min_cycle;Max_cycle;Signal;HPM_P1;HPM_P2
2023/07/02 00:00:25;;;;;;;19.80;12.30;;;;;;;17.90;93.64;97968.18;107756;1308;22265;-57
2023/07/02 00:02:50;;;;;;;17.60;11.50;;;;;;;17.91;93.96;97966.21;107741;1308;22242;-48
2023/07/02 00:05:17;;;;;;;16.20;11.80;;;;;;;17.91;93.54;97968.34;107753;1308;22484;-50
2023/07/02 00:07:42;;;;;;;18.80;12.20;;;;;;;17.89;93.62;97969.73;107734;1308;22268;-50
2023/07/02 00:10:07;;;;;;;19.80;12.50;;;;;;;17.89;93.59;97964.95;107760;1308;22230;-51
2023/07/02 00:12:33;;;;;;;18.50;12.80;;;;;;;17.88;94.22;97966.01;107772;1308;22264;-50
2023/07/02 00:14:58;;;;;;;21.70;13.40;;;;;;;17.88;94.13;97965.11;107762;1308;22446;-52
2023/07/02 00:17:23;;;;;;;21.50;13.50;;;;;;;17.86;94.20;97968.13;107751;1308;22460;-53
2023/07/02 00:19:51;;;;;;;19.00;13.70;;;;;;;17.82;94.31;97966.20;107754;1308;23126;-51
2023/07/02 00:22:17;;;;;;;24.20;14.00;;;;;;;17.81;94.42;97967.24;107776;1308;22269;-50
2023/07/02 00:24:42;;;;;;;19.30;13.60;;;;;;;17.80;94.19;97964.80;107743;1308;22369;-50
2023/07/02 00:27:08;;;;;;;22.10;13.70;;;;;;;17.80;94.03;97963.97;107754;1308;23129;-49
2023/07/02 00:29:33;;;;;;;19.90;12.70;;;;;;;17.80;93.86;97966.29;107733;1308;22375;-52
2023/07/02 00:31:58;;;;;;;18.90;12.60;;;;;;;17.79;93.61;97963.86;107742;1308;22231;-51
2023/07/02 00:34:24;;;;;;;22.60;13.20;;;;;;;17.80;93.44;97959.71;107775;1308;22416;-51
2023/07/02 00:36:50;;;;;;;22.00;12.60;;;;;;;17.80;93.31;97961.67;107792;1308;22238;-49
2023/07/02 00:39:17;;;;;;;20.20;13.00;;;;;;;17.79;93.67;97955.39;107768;1308;22986;-50
2023/07/02 00:41:46;;;;;;;18.00;12.30;;;;;;;17.80;93.58;97956.16;107766;1308;22495;-49
2023/07/02 00:44:12;;;;;;;20.60;12.40;;;;;;;17.80;93.76;97955.06;107772;1308;22290;-47
2023/07/02 00:46:37;;;;;;;19.70;12.50;;;;;;;17.79;93.65;97955.36;107751;1308;22277;-52
2023/07/02 00:49:05;;;;;;;20.80;12.10;;;;;;;17.78;93.20;97955.79;107753;1308;22609;-52
2023/07/02 00:51:30;;;;;;;16.30;11.70;;;;;;;17.77;93.20;97953.80;107761;1308;22494;-53
2023/07/02 00:53:57;;;;;;;19.10;11.60;;;;;;;17.76;93.17;97951.63;107730;1308;22246;-51
2023/07/02 00:56:25;;;;;;;16.60;10.50;;;;;;;17.77;92.87;97949.36;107778;1308;22365;-54
2023/07/02 00:58:53;;;;;;;15.70;11.50;;;;;;;17.76;92.90;97948.94;107767;1308;22338;-49
2023/07/02 01:01:25;;;;;;;17.40;11.70;;;;;;;17.74;93.22;97950.22;107745;1308;22404;-51
2023/07/02 01:04:01;;;;;;;15.80;11.10;;;;;;;17.73;92.93;97949.63;107786;1308;22344;-49
2023/07/02 01:06:28;;;;;;;16.90;11.20;;;;;;;17.71;93.10;97945.60;107773;1308;22249;-52
2023/07/02 01:08:56;;;;;;;15.00;10.70;;;;;;;17.70;93.09;97940.92;107778;1308;22245;-51
2023/07/02 01:11:26;;;;;;;17.80;11.10;;;;;;;17.70;93.16;97940.16;107785;1308;22420;-48
2023/07/02 01:13:54;;;;;;;18.20;12.00;;;;;;;17.73;92.96;97939.56;107781;1308;22427;-50
2023/07/02 01:16:21;;;;;;;15.80;11.00;;;;;;;17.73;92.52;97939.29;107772;1308;22250;-48
2023/07/02 01:18:47;;;;;;;15.40;11.00;;;;;;;17.75;92.17;97938.63;107781;1308;22320;-53
2023/07/02 01:21:13;;;;;;;15.70;10.80;;;;;;;17.76;92.09;97934.95;107768;1308;23057;-48
2023/07/02 01:23:38;;;;;;;17.40;11.30;;;;;;;17.77;92.17;97932.33;107787;1308;22350;-49
2023/07/02 01:26:03;;;;;;;16.60;11.10;;;;;;;17.79;91.42;97934.05;107760;1308;22283;-51
2023/07/02 01:28:36;;;;;;;16.80;10.40;;;;;;;17.81;91.50;97931.57;107771;1308;23227;-48
2023/07/02 01:31:03;;;;;;;15.90;10.80;;;;;;;17.84;91.28;97928.81;107808;1308;22244;-50
2023/07/02 01:33:28;;;;;;;16.00;11.00;;;;;;;17.85;90.81;97928.13;107762;1308;22250;-48
2023/07/02 01:35:53;;;;;;;17.70;10.90;;;;;;;17.87;90.70;97930.96;107751;1308;23001;-49
2023/07/02 01:38:19;;;;;;;16.70;10.30;;;;;;;17.89;90.20;97926.35;107767;1308;22272;-48
2023/07/02 01:40:44;;;;;;;14.10;10.30;;;;;;;17.91;89.94;97926.98;107748;1308;22305;-53
2023/07/02 01:43:09;;;;;;;17.40;10.40;;;;;;;17.93;89.80;97926.71;107790;1308;23157;-54
2023/07/02 01:45:37;;;;;;;15.40;10.40;;;;;;;17.95;89.55;97923.89;107786;1308;22242;-52
2023/07/02 01:48:03;;;;;;;19.30;10.60;;;;;;;17.96;88.94;97925.23;107769;1308;22329;-54
2023/07/02 01:50:28;;;;;;;16.40;10.30;;;;;;;17.96;88.68;97919.73;107764;1308;22425;-51
2023/07/02 01:52:53;;;;;;;14.80;9.70;;;;;;;17.98;88.47;97918.21;107761;1308;22258;-48
2023/07/02 01:55:19;;;;;;;12.70;9.70;;;;;;;18.00;88.23;97918.21;107750;1308;22242;-51
2023/07/02 01:57:44;;;;;;;16.90;9.90;;;;;;;18.00;88.09;97918.18;107753;1308;24287;-51
2023/07/02 02:00:10;;;;;;;12.90;9.80;;;;;;;18.03;87.98;97915.36;107719;1308;22559;-49
2023/07/02 02:02:35;;;;;;;16.70;10.00;;;;;;;18.04;87.58;97912.50;107768;1308;22255;-49
2023/07/02 02:05:00;;;;;;;14.00;9.50;;;;;;;18.07;87.26;97913.42;107760;1308;22360;-53
2023/07/02 02:07:26;;;;;;;15.90;10.00;;;;;;;18.06;86.90;97909.94;107765;1308;23541;-51
2023/07/02 02:09:51;;;;;;;12.20;9.10;;;;;;;18.06;86.58;97911.73;107714;1304;22245;-54
2023/07/02 02:12:17;;;;;;;12.80;8.90;;;;;;;18.07;86.62;97908.24;107743;1308;23017;-52
2023/07/02 02:14:42;;;;;;;13.30;10.10;;;;;;;18.07;86.12;97907.52;107770;1308;22305;-50
2023/07/02 02:17:07;;;;;;;18.30;9.10;;;;;;;18.07;85.99;97906.48;107750;1308;22152;-49
2023/07/02 02:19:33;;;;;;;10.90;8.80;;;;;;;18.06;85.81;97905.14;107769;1308;22288;-48
2023/07/02 02:21:59;;;;;;;15.30;9.70;;;;;;;18.06;86.00;97899.98;107726;1308;22141;-50
2023/07/02 02:24:24;;;;;;;15.10;9.50;;;;;;;18.09;85.84;97899.00;107792;1308;22471;-48
2023/07/02 02:26:49;;;;;;;14.90;9.50;;;;;;;18.11;85.90;97903.09;107769;1308;23275;-53
2023/07/02 02:29:14;;;;;;;15.70;9.90;;;;;;;18.11;85.60;97897.23;107769;1308;22352;-54
2023/07/02 02:31:40;;;;;;;14.80;9.20;;;;;;;18.11;85.76;97896.23;107733;1308;23444;-50
2023/07/02 02:34:05;;;;;;;17.40;9.80;;;;;;;18.12;85.61;97899.41;107766;1308;22314;-51
2023/07/02 02:36:30;;;;;;;13.20;9.30;;;;;;;18.11;85.02;97899.69;107787;1308;23416;-50
2023/07/02 02:38:56;;;;;;;11.40;8.80;;;;;;;18.11;84.87;97899.89;107755;1308;22244;-50
2023/07/02 02:44:43;;;;;;;19.80;10.60;;;;;;;18.13;84.91;97894.40;106739;1313;560654;-47
2023/07/02 02:47:08;;;;;;;15.80;9.40;;;;;;;18.10;84.67;97898.93;107218;1314;22213;-49
2023/07/02 02:49:37;;;;;;;17.90;9.70;;;;;;;18.11;84.56;97894.70;107236;1314;23134;-46
2023/07/02 02:52:02;;;;;;;14.40;9.40;;;;;;;18.10;84.38;97893.38;107225;1314;22259;-46
2023/07/02 02:54:28;;;;;;;18.10;9.70;;;;;;;18.13;84.25;97891.62;107260;1298;22275;-51
2023/07/02 02:56:53;;;;;;;13.40;9.20;;;;;;;18.13;83.80;97891.77;107176;1311;147260;-48
2023/07/02 02:59:19;;;;;;;14.30;9.30;;;;;;;18.12;84.11;97894.55;107482;1294;22250;-48
2023/07/02 03:01:44;;;;;;;13.30;8.70;;;;;;;18.15;84.28;97892.24;107477;1311;22871;-51
2023/07/02 03:04:09;;;;;;;11.50;8.80;;;;;;;18.18;84.34;97890.17;107491;1310;23305;-51
2023/07/02 03:06:35;;;;;;;14.80;9.30;;;;;;;18.17;83.90;97886.36;107477;1311;22297;-51
2023/07/02 03:09:00;;;;;;;12.70;9.00;;;;;;;18.17;84.11;97882.30;107497;1310;22964;-50
2023/07/02 03:11:25;;;;;;;12.90;8.40;;;;;;;18.19;84.27;97885.66;107475;1311;22346;-46
2023/07/02 03:13:51;;;;;;;12.60;8.90;;;;;;;18.18;83.55;97885.79;107728;1308;23073;-50
2023/07/02 03:16:16;;;;;;;11.00;8.40;;;;;;;18.20;83.28;97880.60;107760;1308;23232;-47
2023/07/02 03:18:41;;;;;;;10.90;7.50;;;;;;;18.22;82.81;97886.35;107721;1308;22599;-52
2023/07/02 03:21:06;;;;;;;13.70;8.50;;;;;;;18.22;82.15;97886.31;107730;1308;22444;-48
2023/07/02 03:23:32;;;;;;;12.00;8.40;;;;;;;18.21;81.70;97886.66;107738;1308;22218;-51
2023/07/02 03:25:57;;;;;;;11.80;7.50;;;;;;;18.25;82.14;97890.38;107725;1308;23045;-46
2023/07/02 03:28:22;;;;;;;12.70;8.30;;;;;;;18.25;81.77;97894.93;107747;1308;22471;-50
2023/07/02 03:30:47;;;;;;;12.20;8.40;;;;;;;18.23;81.05;97896.77;107739;1308;22358;-49
2023/07/02 03:33:13;;;;;;;11.30;7.90;;;;;;;18.21;80.56;97895.23;107756;1308;22256;-50
2023/07/02 03:35:38;;;;;;;10.80;7.70;;;;;;;18.22;80.66;97894.90;107725;1308;22283;-50
2023/07/02 03:38:05;;;;;;;9.90;7.10;;;;;;;18.23;80.43;97895.33;107719;1308;22429;-51
2023/07/02 03:40:31;;;;;;;;;;;;;;;18.24;80.11;97900.38;107789;1308;22462;-49
2023/07/02 03:42:56;;;;;;;12.10;7.40;;;;;;;18.23;80.10;97900.41;107733;1308;22379;-53
2023/07/02 03:45:21;;;;;;;11.70;7.80;;;;;;;18.25;80.34;97904.34;107714;1308;22240;-50
2023/07/02 03:47:46;;;;;;;12.90;7.80;;;;;;;18.25;80.17;97904.74;107525;1308;22610;-53
2023/07/02 03:50:12;;;;;;;13.80;8.40;;;;;;;18.21;79.87;97908.01;107750;1308;23243;-51
2023/07/02 03:52:37;;;;;;;13.80;8.50;;;;;;;18.17;79.81;97905.71;107725;1308;22390;-51
2023/07/02 03:55:03;;;;;;;13.40;8.40;;;;;;;18.18;79.95;97905.45;107734;1309;22239;-53
2023/07/02 03:57:28;;;;;;;16.20;8.80;;;;;;;18.21;80.01;97908.17;107736;1309;22431;-50
2023/07/02 03:59:54;;;;;;;12.50;8.00;;;;;;;18.24;80.27;97910.10;107720;1309;22413;-51
2023/07/02 04:02:19;;;;;;;11.70;7.90;;;;;;;18.24;80.11;97912.26;107717;1309;22468;-48
2023/07/02 04:04:44;;;;;;;10.50;7.70;;;;;;;18.27;80.32;97909.09;107727;1309;22240;-52
2023/07/02 04:07:09;;;;;;;15.20;7.90;;;;;;;18.25;80.45;97911.66;107708;1309;23193;-53
2023/07/02 04:09:35;;;;;;;12.10;8.00;;;;;;;18.27;80.63;97911.05;107695;1309;22251;-51
2023/07/02 04:12:01;;;;;;;14.40;8.10;;;;;;;18.24;80.51;97907.27;107742;1308;22297;-49
2023/07/02 04:14:26;;;;;;;13.10;8.00;;;;;;;18.19;81.11;97905.81;107762;1308;22946;-50
2023/07/02 04:16:52;;;;;;;17.30;8.30;;;;;;;18.26;80.90;97909.08;107712;1308;22211;-50
2023/07/02 04:19:17;;;;;;;12.10;8.10;;;;;;;18.25;81.09;97910.33;107709;1308;23049;-50
2023/07/02 04:21:42;;;;;;;13.20;7.90;;;;;;;18.27;81.07;97912.42;107728;1308;24758;-48
2023/07/02 04:24:07;;;;;;;10.50;7.60;;;;;;;18.28;81.07;97913.92;107740;1308;22446;-50
2023/07/02 04:26:33;;;;;;;14.70;8.10;;;;;;;18.22;81.53;97918.17;107764;1308;23001;-53
2023/07/02 04:28:58;;;;;;;10.30;7.80;;;;;;;18.20;81.88;97919.80;107745;1308;23040;-51
2023/07/02 04:31:24;;;;;;;12.50;8.60;;;;;;;18.23;81.78;97920.70;107731;1308;22394;-51
2023/07/02 04:33:49;;;;;;;16.00;8.60;;;;;;;18.28;81.64;97917.69;107615;1308;22947;-51
2023/07/02 04:36:15;;;;;;;10.50;8.20;;;;;;;18.31;81.78;97920.77;107665;1309;22506;-51
2023/07/02 04:38:40;;;;;;;12.30;8.00;;;;;;;18.36;81.50;97923.56;107629;1309;22909;-50
2023/07/02 04:41:05;;;;;;;12.10;8.70;;;;;;;18.38;81.67;97923.46;107641;1309;22344;-50
2023/07/02 04:43:31;;;;;;;11.00;7.80;;;;;;;18.42;81.67;97918.63;107680;1309;22335;-51
2023/07/02 04:45:57;;;;;;;17.20;8.80;;;;;;;18.45;81.47;97925.95;107639;1309;23240;-50
2023/07/02 04:48:22;;;;;;;12.90;8.20;;;;;;;18.45;81.57;97928.44;107635;1309;22258;-48
2023/07/02 04:50:47;;;;;;;15.80;7.90;;;;;;;18.46;81.57;97929.58;107649;1309;22819;-47
2023/07/02 04:53:13;;;;;;;11.50;8.20;;;;;;;18.45;81.69;97934.13;107628;1309;22240;-50
2023/07/02 04:55:38;;;;;;;14.50;7.60;;;;;;;18.45;81.53;97936.06;107661;1286;22313;-50
2023/07/02 04:58:03;;;;;;;11.00;7.60;;;;;;;18.45;81.73;97937.48;107678;1309;23243;-47
2023/07/02 05:00:29;;;;;;;10.30;8.00;;;;;;;18.48;81.63;97940.67;107628;1309;22239;-49
2023/07/02 05:02:54;;;;;;;10.70;7.50;;;;;;;18.55;81.59;97935.52;107663;1309;22947;-53
2023/07/02 05:05:19;;;;;;;14.20;7.40;;;;;;;18.58;81.55;97926.45;107645;1309;22465;-50
2023/07/02 05:07:44;;;;;;;14.70;7.40;;;;;;;18.64;81.52;97920.36;107663;1309;23864;-50
2023/07/02 05:10:10;;;;;;;11.60;6.90;;;;;;;18.68;81.24;97920.71;107636;1309;23275;-51
2023/07/02 05:12:35;;;;;;;10.30;7.10;;;;;;;18.74;80.96;97925.41;107650;1309;22235;-50
2023/07/02 05:15:00;;;;;;;16.60;7.60;;;;;;;18.76;81.04;97948.26;107640;1309;22794;-49
2023/07/02 05:17:26;;;;;;;12.70;7.00;;;;;;;18.75;80.70;97950.65;107652;1309;23308;-49
2023/07/02 05:19:51;;;;;;;10.50;7.20;;;;;;;18.73;80.54;97952.61;107670;1309;22118;-50
2023/07/02 05:22:17;;;;;;;9.90;7.50;;;;;;;18.69;80.67;97953.86;107671;1309;22689;-50
2023/07/02 05:24:43;;;;;;;13.40;7.10;;;;;;;18.66;80.94;97954.73;107649;1309;22281;-51
2023/07/02 05:27:09;;;;;;;16.10;7.90;;;;;;;18.69;81.08;97952.52;107668;1309;22274;-46
2023/07/02 05:29:34;;;;;;;10.10;6.90;;;;;;;18.75;80.60;97952.41;107643;1309;22243;-53
2023/07/02 05:32:00;;;;;;;13.60;6.50;;;;;;;18.77;80.47;97951.71;107647;1309;22530;-50
2023/07/02 05:34:25;;;;;;;12.40;6.40;;;;;;;18.76;80.00;97950.85;107667;1309;22244;-47
2023/07/02 05:36:50;;;;;;;14.00;6.70;;;;;;;18.77;79.91;97954.87;107656;1309;22236;-50
2023/07/02 05:39:16;;;;;;;10.90;6.30;;;;;;;18.83;80.00;97958.73;107670;1309;22241;-49
2023/07/02 05:41:41;;;;;;;10.20;6.20;;;;;;;18.86;80.14;97961.95;107654;1309;22304;-46
2023/07/02 05:44:06;;;;;;;11.70;6.30;;;;;;;18.87;79.89;97964.61;107649;1309;22472;-48
2023/07/02 05:46:31;;;;;;;13.40;6.00;;;;;;;18.88;79.87;97967.43;107641;1294;22287;-50
2023/07/02 05:48:57;;;;;;;7.90;5.70;;;;;;;18.91;79.62;97970.83;107652;1309;22897;-53
2023/07/02 05:51:25;;;;;;;9.80;5.70;;;;;;;18.91;79.97;97973.45;107643;1309;22430;-49
2023/07/02 05:53:51;;;;;;;7.10;5.50;;;;;;;18.93;79.90;97976.61;107681;1309;22333;-49
2023/07/02 05:56:17;;;;;;;8.20;5.50;;;;;;;18.96;79.72;97978.93;107641;1309;22252;-50
2023/07/02 05:58:43;;;;;;;9.60;5.60;;;;;;;18.96;79.77;97980.94;107665;1309;22271;-50
2023/07/02 06:01:08;;;;;;;9.00;5.80;;;;;;;19.06;80.02;97985.77;107674;1309;23096;-48
2023/07/02 06:03:33;;;;;;;11.00;6.20;;;;;;;19.19;79.75;97984.93;107436;1309;22921;-48
2023/07/02 06:05:59;;;;;;;11.70;5.30;;;;;;;19.21;79.17;97983.95;107629;1309;22254;-50
2023/07/02 06:08:24;;;;;;;10.00;6.10;;;;;;;19.28;79.25;97986.36;107627;1309;22231;-49
2023/07/02 06:10:50;;;;;;;10.80;5.70;;;;;;;19.32;79.02;97982.30;107654;1309;23029;-54
2023/07/02 06:13:16;;;;;;;9.60;5.70;;;;;;;19.30;78.26;97982.09;107670;1309;22289;-51
2023/07/02 06:15:41;;;;;;;7.80;6.00;;;;;;;19.36;78.36;97981.58;107666;1309;22227;-50
2023/07/02 06:18:07;;;;;;;10.00;5.40;;;;;;;19.46;78.14;97980.30;107644;1309;22484;-51
2023/07/02 06:20:32;;;;;;;7.10;5.40;;;;;;;19.56;78.52;97985.23;107678;1309;22274;-53
2023/07/02 06:22:57;;;;;;;8.90;5.70;;;;;;;19.55;77.84;97986.05;107664;1309;24180;-52
2023/07/02 06:25:23;;;;;;;9.40;5.10;;;;;;;19.52;77.98;97982.45;107646;1309;22255;-51
2023/07/02 06:27:48;;;;;;;6.70;4.80;;;;;;;19.48;78.29;97987.69;107671;1309;22426;-51
2023/07/02 06:30:14;;;;;;;7.50;5.30;;;;;;;19.49;78.49;97989.72;107652;1309;22431;-50
2023/07/02 06:32:39;;;;;;;5.50;4.40;;;;;;;19.49;78.78;97989.74;107643;1309;22243;-51
2023/07/02 06:35:06;;;;;;;11.90;4.00;;;;;;;19.37;79.03;97986.77;107651;1309;22311;-51
2023/07/02 06:37:32;;;;;;;4.90;4.20;;;;;;;19.32;79.27;97984.11;107643;1309;22303;-54
2023/07/02 06:39:57;;;;;;;7.60;4.20;;;;;;;19.34;79.20;97981.29;107687;1309;22412;-53
2023/07/02 06:42:22;;;;;;;7.60;3.90;;;;;;;19.46;79.01;97980.48;107636;1309;22382;-53
2023/07/02 06:44:48;;;;;;;8.80;4.30;;;;;;;19.57;78.81;97985.08;107639;1309;23036;-54
2023/07/02 06:47:13;;;;;;;7.70;4.60;;;;;;;19.68;78.59;97993.46;107646;1309;22243;-54
2023/07/02 06:49:38;;;;;;;7.80;3.70;;;;;;;19.81;78.50;97998.08;107627;1309;22678;-51
2023/07/02 06:52:04;;;;;;;8.20;4.60;;;;;;;19.82;77.61;97992.08;107650;1309;22899;-51
2023/07/02 06:54:29;;;;;;;5.40;3.90;;;;;;;20.02;77.75;97991.92;107670;1309;23009;-48
2023/07/02 06:56:55;;;;;;;5.10;3.80;;;;;;;20.09;76.72;97992.17;107661;1309;22221;-52
2023/07/02 06:59:21;;;;;;;7.30;3.70;;;;;;;20.15;76.54;97985.63;107661;1309;22946;-52
2023/07/02 07:01:46;;;;;;;10.70;4.20;;;;;;;20.21;76.62;97986.45;107737;1308;23310;-51
2023/07/02 07:04:11;;;;;;;6.20;3.30;;;;;;;20.20;76.58;97989.83;107709;1308;23202;-51
2023/07/02 07:06:37;;;;;;;4.70;3.40;;;;;;;20.23;76.60;97987.57;107744;1308;22239;-52
2023/07/02 07:09:03;;;;;;;3.70;3.30;;;;;;;20.23;76.70;97990.40;107715;1308;23116;-51
2023/07/02 07:11:28;;;;;;;5.50;3.20;;;;;;;20.22;77.09;97994.42;107740;1308;22222;-49
2023/07/02 07:13:54;;;;;;;13.50;3.00;;;;;;;20.08;77.20;97996.22;107712;1308;22412;-51
2023/07/02 07:16:19;;;;;;;6.70;3.00;;;;;;;20.01;77.66;97997.90;107706;1308;22304;-49
2023/07/02 07:18:45;;;;;;;6.80;3.00;;;;;;;19.90;77.80;98003.27;107722;1308;22402;-48
2023/07/02 07:21:10;;;;;;;3.30;2.90;;;;;;;19.78;78.36;98010.43;107704;1308;22411;-50
2023/07/02 07:23:35;;;;;;;4.70;3.00;;;;;;;19.60;79.23;98015.66;107708;1308;24999;-47
2023/07/02 07:26:00;;;;;;;3.10;2.80;;;;;;;19.56;79.42;98016.85;107728;1308;22143;-48
2023/07/02 07:28:26;;;;;;;6.50;2.90;;;;;;;19.41;80.47;98014.03;107747;1308;23099;-48
2023/07/02 07:30:51;;;;;;;9.50;3.20;;;;;;;19.33;81.05;98019.20;107744;1308;22314;-52
2023/07/02 07:33:16;;;;;;;2.90;2.70;;;;;;;19.34;81.04;98017.33;107722;1308;23169;-51
2023/07/02 07:35:42;;;;;;;8.70;3.20;;;;;;;19.34;81.34;98020.61;107728;1308;22291;-50
2023/07/02 07:38:07;;;;;;;3.20;2.80;;;;;;;19.32;81.99;98032.17;107751;1308;22419;-47
2023/07/02 07:40:32;;;;;;;4.40;2.70;;;;;;;19.29;81.89;98025.67;107729;1308;22233;-51
2023/07/02 07:42:58;;;;;;;5.20;3.00;;;;;;;19.31;81.62;98027.67;107704;1308;22460;-49
2023/07/02 07:45:23;;;;;;;3.90;3.40;;;;;;;19.29;82.35;98025.61;107727;1308;22235;-49
2023/07/02 07:47:48;;;;;;;4.60;3.10;;;;;;;19.29;82.44;98028.54;107752;1308;22266;-46
2023/07/02 07:50:13;;;;;;;4.40;3.10;;;;;;;19.26;83.14;98028.89;107732;1308;23201;-49
2023/07/02 07:52:40;;;;;;;2.40;2.20;;;;;;;19.27;83.26;98033.11;107730;1308;22249;-51
2023/07/02 07:55:07;;;;;;;6.40;2.60;;;;;;;19.29;83.26;98034.84;107718;1308;22690;-52
2023/07/02 07:57:33;;;;;;;3.60;2.50;;;;;;;19.31;83.39;98034.54;107560;1308;22420;-52
2023/07/02 07:59:58;;;;;;;4.90;2.40;;;;;;;19.31;83.85;98038.01;107729;1308;22954;-51
2023/07/02 08:02:24;;;;;;;3.90;2.50;;;;;;;19.33;83.91;98036.16;107716;1308;22416;-49
2023/07/02 08:04:49;;;;;;;4.20;2.40;;;;;;;19.35;84.06;98035.89;107722;1308;22248;-52
2023/07/02 08:07:15;;;;;;;2.70;2.50;;;;;;;19.59;83.45;98033.98;107736;1308;22469;-48
2023/07/02 08:09:40;;;;;;;4.60;3.00;;;;;;;19.86;82.22;98031.39;107724;1308;22815;-52
2023/07/02 08:12:06;;;;;;;5.80;2.20;;;;;;;20.15;80.73;98030.48;107740;1308;22332;-51
2023/07/02 08:14:31;;;;;;;3.50;2.20;;;;;;;20.28;80.01;98030.58;107735;1308;22866;-50
2023/07/02 08:16:56;;;;;;;2.60;2.20;;;;;;;20.53;79.92;98034.23;107712;1308;23046;-52
2023/07/02 08:19:22;;;;;;;4.00;2.10;;;;;;;20.79;78.89;98039.83;107702;1308;22246;-51
2023/07/02 08:21:47;;;;;;;2.80;2.20;;;;;;;20.94;77.86;98045.00;107722;1308;22907;-51
2023/07/02 08:24:13;;;;;;;2.40;1.70;;;;;;;21.02;77.25;98044.67;107706;1308;22347;-50
2023/07/02 08:26:38;;;;;;;2.60;2.00;;;;;;;21.03;76.80;98043.13;107721;1308;22290;-52
2023/07/02 08:29:04;;;;;;;2.00;1.90;;;;;;;21.10;75.88;98049.19;107724;1308;22213;-51
2023/07/02 08:31:29;;;;;;;2.40;1.70;;;;;;;21.19;74.55;98046.15;107721;1308;23468;-49
2023/07/02 08:33:54;;;;;;;1.90;1.80;;;;;;;21.29;74.27;98047.38;107715;1308;23000;-54
2023/07/02 08:36:19;;;;;;;2.90;2.20;;;;;;;21.35;73.62;98045.68;107725;1308;22419;-48
2023/07/02 08:38:45;;;;;;;3.70;1.70;;;;;;;21.32;73.57;98046.17;107713;1308;22239;-46
2023/07/02 08:41:12;;;;;;;3.10;1.70;;;;;;;21.35;73.09;98046.48;107718;1308;22327;-48
2023/07/02 08:43:37;;;;;;;1.60;1.30;;;;;;;21.40;72.95;98049.63;107737;1308;22254;-50
2023/07/02 08:46:02;;;;;;;4.90;1.90;;;;;;;21.43;73.17;98055.52;107722;1308;23110;-51
2023/07/02 08:48:29;;;;;;;2.40;1.30;;;;;;;21.37;72.87;98058.20;107724;1308;23123;-53
2023/07/02 08:50:55;;;;;;;4.10;1.50;;;;;;;21.29;72.50;98057.98;107714;1308;22255;-53
2023/07/02 08:53:25;;;;;;;1.80;1.60;;;;;;;21.25;72.40;98058.25;107723;1308;22997;-52
2023/07/02 08:55:50;;;;;;;3.40;1.50;;;;;;;21.25;72.53;98058.55;107729;1308;22396;-50
2023/07/02 08:58:16;;;;;;;1.90;1.50;;;;;;;21.27;72.20;98060.34;107720;1291;22590;-49
2023/07/02 09:01:06;;;;;;;1.70;1.50;;;;;;;21.17;71.96;98059.08;107717;1308;22493;-50
2023/07/02 09:03:31;;;;;;;3.40;1.70;;;;;;;21.19;72.34;98056.44;107727;1308;22245;-48
2023/07/02 09:05:56;;;;;;;5.60;1.80;;;;;;;21.21;72.43;98061.60;107709;1308;22311;-52
2023/07/02 09:08:25;;;;;;;3.30;1.50;;;;;;;21.22;72.26;98063.92;107718;1308;22797;-49
2023/07/02 09:10:51;;;;;;;4.10;2.20;;;;;;;21.22;72.26;98065.66;107736;1308;23116;-48
2023/07/02 09:13:16;;;;;;;2.10;1.70;;;;;;;21.11;71.78;98069.12;107733;1308;22308;-49
2023/07/02 09:15:42;;;;;;;4.60;1.50;;;;;;;21.07;72.22;98073.00;107682;1301;22373;-52
2023/07/02 09:18:20;;;;;;;2.50;1.80;;;;;;;21.04;72.27;98072.83;107521;1308;22451;-53
2023/07/02 09:20:50;;;;;;;4.70;1.70;;;;;;;21.07;72.60;98067.98;107701;1308;22222;-51
2023/07/02 09:23:15;;;;;;;2.50;1.60;;;;;;;21.18;72.54;98066.08;107739;1285;22247;-52
2023/07/02 09:25:41;;;;;;;1.70;1.60;;;;;;;21.27;71.55;98063.34;107681;1308;22229;-51
2023/07/02 09:28:18;;;;;;;2.00;1.60;;;;;;;21.29;71.36;98056.66;107833;1307;22204;-53
2023/07/02 09:30:54;;;;;;;2.00;1.70;;;;;;;21.38;71.55;98061.65;107904;1307;22253;-52
2023/07/02 09:33:21;;;;;;;1.70;1.50;;;;;;;21.54;72.01;98065.67;107920;1307;22330;-52
2023/07/02 09:35:46;;;;;;;2.20;1.60;;;;;;;21.87;71.76;98060.02;107912;1307;22266;-51
2023/07/02 09:38:12;;;;;;;6.80;2.70;;;;;;;22.24;70.49;98062.39;107913;1308;23111;-53
2023/07/02 09:40:45;;;;;;;2.90;1.70;;;;;;;22.44;69.26;98059.69;107910;1308;22191;-51
2023/07/02 09:43:11;;;;;;;1.70;1.50;;;;;;;22.67;68.61;98055.98;107915;1307;22256;-50
2023/07/02 09:45:37;;;;;;;5.30;1.90;;;;;;;22.74;66.81;98058.98;107909;1308;22304;-49
2023/07/02 09:48:06;;;;;;;4.00;2.40;;;;;;;22.80;66.50;98060.77;107922;1307;23281;-52
2023/07/02 09:50:32;;;;;;;1.70;1.60;;;;;;;22.86;65.32;98058.38;107943;1307;22268;-52
2023/07/02 09:52:58;;;;;;;2.40;1.30;;;;;;;23.00;65.16;98057.16;107911;1307;23430;-50
2023/07/02 09:55:24;;;;;;;2.80;1.20;;;;;;;23.07;64.37;98059.84;107911;1307;22212;-51
2023/07/02 09:57:49;;;;;;;1.40;1.30;;;;;;;23.05;63.66;98056.64;107913;1308;22211;-50
2023/07/02 10:00:15;;;;;;;1.20;1.20;;;;;;;22.92;62.84;98056.53;107910;1308;23055;-49
2023/07/02 10:02:40;;;;;;;1.90;1.80;;;;;;;22.96;63.53;98058.95;107891;1307;22240;-48
2023/07/02 10:05:06;;;;;;;2.90;1.70;;;;;;;22.82;62.94;98060.32;107923;1308;22290;-54
2023/07/02 10:07:33;;;;;;;3.40;1.40;;;;;;;22.63;63.32;98061.27;107907;1307;23292;-52
2023/07/02 10:09:59;;;;;;;1.70;1.60;;;;;;;22.40;63.44;98065.00;107933;1307;23189;-52
2023/07/02 10:12:26;;;;;;;1.40;1.20;;;;;;;22.25;64.42;98066.18;107907;1307;22290;-52
2023/07/02 10:14:52;;;;;;;;;;;;;;;22.06;65.58;98070.01;107928;1307;22447;-52
2023/07/02 10:17:32;;;;;;;1.50;1.10;;;;;;;21.85;66.66;98067.35;107937;1308;23020;-51
2023/07/02 10:20:06;;;;;;;3.30;1.60;;;;;;;21.58;68.22;98072.52;107904;1308;22336;-52
2023/07/02 10:22:43;;;;;;;1.70;1.60;;;;;;;21.23;71.02;98077.92;107926;1308;22398;-51
2023/07/02 10:25:08;;;;;;;3.40;1.90;;;;;;;20.91;73.54;98078.64;107914;1307;22318;-50
2023/07/02 10:27:39;;;;;;;3.50;1.90;;;;;;;20.72;74.80;98068.73;107919;1308;23150;-49
2023/07/02 10:30:06;;;;;;;3.70;1.50;;;;;;;20.59;74.91;98068.09;107922;1307;22545;-50
2023/07/02 10:32:33;;;;;;;1.50;1.40;;;;;;;20.39;75.14;98069.27;107929;1307;22338;-50
2023/07/02 10:35:01;;;;;;;3.00;1.70;;;;;;;20.28;76.20;98066.81;107911;1308;22375;-49
2023/07/02 10:37:26;;;;;;;;;;;;;;;20.27;76.79;98066.24;107913;1307;22537;-49
2023/07/02 10:39:52;;;;;;;2.00;1.80;;;;;;;20.42;76.35;98066.53;107906;1308;22247;-48
2023/07/02 10:42:17;;;;;;;2.00;1.70;;;;;;;21.34;75.91;98072.79;107927;1307;22833;-48
2023/07/02 10:44:52;;;;;;;1.50;1.40;;;;;;;22.32;72.75;98067.90;107909;1308;22277;-50
2023/07/02 10:47:19;;;;;;;2.40;1.50;;;;;;;23.10;69.72;98068.64;107927;1308;22978;-49
2023/07/02 10:49:45;;;;;;;6.00;1.60;;;;;;;23.32;66.08;98063.73;107933;1308;22251;-47
2023/07/02 10:52:10;;;;;;;2.90;1.20;;;;;;;23.24;63.86;98066.44;107929;1308;22418;-50
2023/07/02 10:54:43;;;;;;;2.40;1.80;;;;;;;23.04;63.49;98063.81;107925;1307;22354;-51
2023/07/02 10:57:09;;;;;;;2.90;1.40;;;;;;;22.88;64.74;98062.64;107936;1308;22237;-49
2023/07/02 10:59:35;;;;;;;4.20;1.40;;;;;;;22.73;65.15;98060.73;107926;1307;23029;-49
2023/07/02 11:02:03;;;;;;;2.90;1.60;;;;;;;22.55;65.18;98064.17;107906;1307;22220;-48
2023/07/02 11:04:29;;;;;;;1.60;1.50;;;;;;;22.40;65.86;98067.20;107917;1307;22327;-49
2023/07/02 11:06:55;;;;;;;1.50;1.40;;;;;;;22.29;66.30;98067.64;107953;1307;22054;-48
2023/07/02 11:09:20;;;;;;;2.50;1.60;;;;;;;22.12;66.38;98067.14;107959;1307;22539;-49
2023/07/02 11:11:55;;;;;;;1.50;1.30;;;;;;;21.94;66.56;98069.78;107914;1307;22238;-48
2023/07/02 11:14:30;;;;;;;3.80;1.50;;;;;;;21.71;66.78;98077.52;107901;1307;22567;-50
2023/07/02 11:16:57;;;;;;;3.20;1.80;;;;;;;21.57;65.47;98076.70;107943;1307;22219;-50